Time;durP1;ratioP1;P1;durP2;ratioP2;P2;SDS_P1;SDS_P2;PMS_P1;PMS_P2;Temp;Humidity;BMP_temperature;BMP_pressure;BME280_temperature;BME280_humidity;BME280_pressure;Samples;Min_cycle;Max_cycle;Signal;HPM_P1;HPM_P2
2023/07/02 00:00:27;;;;;;;38.83;21.60;;;;;;;;;;6284029;28;20499;-57
2023/07/02 00:03:47;;;;;;;41.47;22.70;;;;;;;;;;6282179;28;20052;-58
2023/07/02 00:06:48;;;;;;;39.33;22.23;;;;;;;;;;6282600;28;20639;-56
2023/07/02 00:09:49;;;;;;;38.03;22.00;;;;;;;;;;6285175;28;20079;-57
2023/07/02 00:12:49;;;;;;;42.03;23.40;;;;;;;;;;6286611;28;20052;-57
2023/07/02 00:15:50;;;;;;;47.20;24.87;;;;;;;;;;6289123;28;20044;-58
2023/07/02 00:18:54;;;;;;;44.57;24.63;;;;;;;;;;6288226;28;20098;-57
2023/07/02 00:21:55;;;;;;;45.97;24.73;;;;;;;;;;6290822;28;20579;-61
2023/07/02 00:24:55;;;;;;;41.90;24.50;;;;;;;;;;6283543;28;20087;-58
2023/07/02 00:27:56;;;;;;;42.50;23.47;;;;;;;;;;6289037;28;20082;-59
2023/07/02 00:30:57;;;;;;;41.60;23.27;;;;;;;;;;6288431;28;20052;-58
2023/07/02 00:33:57;;;;;;;41.50;23.20;;;;;;;;;;6290083;28;20044;-57
2023/07/02 00:36:58;;;;;;;38.97;21.97;;;;;;;;;;6287184;28;20410;-58
2023/07/02 00:39:59;;;;;;;42.33;22.47;;;;;;;;;;6286822;28;20094;-58
2023/07/02 00:42:59;;;;;;;39.50;23.20;;;;;;;;;;6283582;28;20480;-58
2023/07/02 00:46:00;;;;;;;38.03;22.60;;;;;;;;;;6286353;28;20131;-58
2023/07/02 00:49:03;;;;;;;38.57;22.07;;;;;;;;;;6289353;28;20119;-57
2023/07/02 00:52:05;;;;;;;38.50;22.35;;;;;;;;;;6291700;28;20047;-56
2023/07/02 00:55:06;;;;;;;41.60;24.17;;;;;;;;;;6298095;28;20052;-58
2023/07/02 00:58:08;;;;;;;42.35;24.73;;;;;;;;;;6306421;28;20058;-57
2023/07/02 01:01:09;;;;;;;39.05;23.70;;;;;;;;;;6300801;28;20284;-57
2023/07/02 01:04:12;;;;;;;45.20;25.55;;;;;;;;;;6305224;28;20111;-57
2023/07/02 01:07:13;;;;;;;53.15;28.92;;;;;;;;;;6301066;28;20402;-58
2023/07/02 01:10:14;;;;;;;61.30;29.67;;;;;;;;;;6305199;28;20055;-58
2023/07/02 01:13:19;;;;;;;57.00;29.80;;;;;;;;;;6302805;28;20036;-58
2023/07/02 01:16:21;;;;;;;59.15;31.58;;;;;;;;;;6295339;28;20514;-56
2023/07/02 01:19:40;;;;;;;46.83;26.00;;;;;;;;;;6307789;28;20048;-58
2023/07/02 01:22:41;;;;;;;54.10;29.77;;;;;;;;;;6303414;28;20414;-58
2023/07/02 01:25:45;;;;;;;48.83;26.23;;;;;;;;;;6296361;28;20063;-59
2023/07/02 01:28:46;;;;;;;44.58;25.15;;;;;;;;;;6299020;28;20097;-58
2023/07/02 01:31:47;;;;;;;51.03;27.57;;;;;;;;;;6302272;28;20048;-58
2023/07/02 01:34:48;;;;;;;49.75;26.13;;;;;;;;;;6301196;28;20519;-57
2023/07/02 01:37:49;;;;;;;51.07;26.83;;;;;;;;;;6296346;28;21419;-56
2023/07/02 01:40:49;;;;;;;46.67;25.80;;;;;;;;;;6301256;28;20432;-57
2023/07/02 01:43:50;;;;;;;54.53;28.23;;;;;;;;;;6301028;28;20055;-57
2023/07/02 01:46:51;;;;;;;52.20;28.40;;;;;;;;;;6301272;28;20068;-57
2023/07/02 01:49:51;;;;;;;56.50;30.07;;;;;;;;;;6306777;28;20036;-58
2023/07/02 01:52:52;;;;;;;52.90;28.90;;;;;;;;;;6297431;28;20052;-58
2023/07/02 01:55:53;;;;;;;55.57;29.07;;;;;;;;;;6294959;28;20048;-58
2023/07/02 01:58:54;;;;;;;53.73;28.60;;;;;;;;;;6299123;28;20185;-55
2023/07/02 02:01:55;;;;;;;57.28;30.17;;;;;;;;;;6298272;28;20052;-56
2023/07/02 02:04:56;;;;;;;56.73;29.40;;;;;;;;;;6302639;28;20044;-57
2023/07/02 02:07:56;;;;;;;53.07;29.77;;;;;;;;;;6298057;28;20433;-57
2023/07/02 02:10:57;;;;;;;55.03;29.53;;;;;;;;;;6299002;28;20037;-58
2023/07/02 02:13:58;;;;;;;58.53;29.53;;;;;;;;;;6301470;28;20052;-58
2023/07/02 02:16:59;;;;;;;55.38;29.13;;;;;;;;;;6296388;28;20551;-57
2023/07/02 02:19:59;;;;;;;53.37;27.37;;;;;;;;;;6301445;28;20036;-57
2023/07/02 02:23:00;;;;;;;50.47;29.33;;;;;;;;;;6297921;28;20052;-58
2023/07/02 02:26:01;;;;;;;62.10;30.07;;;;;;;;;;6301581;28;20093;-58
2023/07/02 02:29:02;;;;;;;55.10;29.90;;;;;;;;;;6301836;28;20143;-58
2023/07/02 02:32:03;;;;;;;57.35;31.58;;;;;;;;;;6309303;28;20043;-58
2023/07/02 02:35:04;;;;;;;64.23;31.33;;;;;;;;;;6294137;28;20062;-61
2023/07/02 02:38:04;;;;;;;56.07;30.33;;;;;;;;;;6300207;28;20044;-57
2023/07/02 02:41:06;;;;;;;56.50;29.77;;;;;;;;;;6309838;28;20048;-57
2023/07/02 02:44:06;;;;;;;60.20;31.35;;;;;;;;;;6304641;28;20108;-57
2023/07/02 02:47:07;;;;;;;59.57;30.97;;;;;;;;;;6299379;28;20090;-58
2023/07/02 02:50:09;;;;;;;58.03;29.87;;;;;;;;;;6299799;28;20047;-58
2023/07/02 02:53:10;;;;;;;60.38;30.92;;;;;;;;;;6298188;28;21662;-58
2023/07/02 02:56:11;;;;;;;61.73;30.20;;;;;;;;;;6296509;28;20048;-58
2023/07/02 02:59:11;;;;;;;64.70;30.03;;;;;;;;;;6298214;28;20132;-58
2023/07/02 03:02:12;;;;;;;56.13;29.03;;;;;;;;;;6301598;28;20055;-57
2023/07/02 03:05:15;;;;;;;52.27;28.53;;;;;;;;;;6294909;28;20499;-57
2023/07/02 03:08:16;;;;;;;57.03;29.38;;;;;;;;;;6296898;28;20040;-58
2023/07/02 03:11:17;;;;;;;55.97;29.00;;;;;;;;;;6298412;28;20046;-58
2023/07/02 03:14:18;;;;;;;58.77;29.67;;;;;;;;;;6295354;28;20040;-58
2023/07/02 03:17:19;;;;;;;53.40;27.20;;;;;;;;;;6295117;28;20040;-58
2023/07/02 03:20:20;;;;;;;53.15;27.27;;;;;;;;;;6299289;28;20139;-58
2023/07/02 03:23:20;;;;;;;52.07;27.17;;;;;;;;;;6301190;28;20556;-57
2023/07/02 03:26:22;;;;;;;57.40;28.17;;;;;;;;;;6294857;28;20411;-58
2023/07/02 03:29:23;;;;;;;51.83;26.20;;;;;;;;;;6299577;28;20571;-58
2023/07/02 03:32:23;;;;;;;51.23;27.03;;;;;;;;;;6297951;28;20770;-58
2023/07/02 03:35:24;;;;;;;49.53;25.63;;;;;;;;;;6297504;28;20041;-58
2023/07/02 03:38:25;;;;;;;52.27;26.83;;;;;;;;;;6305356;28;20437;-58
2023/07/02 03:41:25;;;;;;;46.13;25.03;;;;;;;;;;6303122;28;20048;-59
2023/07/02 03:44:26;;;;;;;49.13;25.90;;;;;;;;;;6296272;28;20041;-58
2023/07/02 03:47:26;;;;;;;49.03;25.00;;;;;;;;;;6302533;28;20102;-58
2023/07/02 03:50:27;;;;;;;51.80;24.60;;;;;;;;;;6303464;28;20048;-58
2023/07/02 03:53:27;;;;;;;52.57;25.07;;;;;;;;;;6301072;28;20526;-58
2023/07/02 03:56:28;;;;;;;50.30;25.43;;;;;;;;;;6301085;28;20033;-58
2023/07/02 03:59:29;;;;;;;50.47;23.37;;;;;;;;;;6300220;28;20370;-61
2023/07/02 04:02:29;;;;;;;45.67;24.53;;;;;;;;;;6301835;28;20079;-60
2023/07/02 04:05:30;;;;;;;49.20;26.07;;;;;;;;;;6302065;28;20039;-57
2023/07/02 04:08:30;;;;;;;47.37;25.37;;;;;;;;;;6302023;28;20518;-58
2023/07/02 04:11:31;;;;;;;49.33;25.37;;;;;;;;;;6302245;28;20515;-58
2023/07/02 04:14:32;;;;;;;50.37;24.47;;;;;;;;;;6301386;28;20048;-57
2023/07/02 04:17:32;;;;;;;47.97;24.60;;;;;;;;;;6302635;28;20036;-58
2023/07/02 04:20:33;;;;;;;52.53;24.47;;;;;;;;;;6301711;28;20436;-58
2023/07/02 04:23:33;;;;;;;44.60;23.30;;;;;;;;;;6303791;28;20483;-59
2023/07/02 04:26:34;;;;;;;44.93;23.47;;;;;;;;;;6298554;28;20036;-58
2023/07/02 04:29:35;;;;;;;44.83;23.20;;;;;;;;;;6304300;28;20081;-58
2023/07/02 04:32:36;;;;;;;44.10;21.10;;;;;;;;;;6300429;28;21044;-57
2023/07/02 04:35:37;;;;;;;41.92;22.17;;;;;;;;;;6298577;28;20574;-58
2023/07/02 04:38:39;;;;;;;40.93;20.70;;;;;;;;;;6301025;28;20059;-57
2023/07/02 04:41:39;;;;;;;40.58;21.05;;;;;;;;;;6303289;28;20116;-58
2023/07/02 04:44:43;;;;;;;38.17;21.27;;;;;;;;;;6303812;28;20492;-58
2023/07/02 04:47:44;;;;;;;37.80;18.95;;;;;;;;;;6298326;28;20085;-58
2023/07/02 04:50:45;;;;;;;35.97;19.42;;;;;;;;;;6301937;28;20036;-58
2023/07/02 04:53:45;;;;;;;41.13;20.13;;;;;;;;;;6305187;28;20562;-57
2023/07/02 04:56:47;;;;;;;39.17;19.03;;;;;;;;;;6300582;28;20815;-61
2023/07/02 04:59:48;;;;;;;37.42;20.00;;;;;;;;;;6300331;28;20131;-59
2023/07/02 05:02:49;;;;;;;42.00;19.47;;;;;;;;;;6306409;28;20408;-54
2023/07/02 05:05:50;;;;;;;38.00;20.17;;;;;;;;;;6303617;28;20063;-56
2023/07/02 05:08:52;;;;;;;37.17;20.67;;;;;;;;;;6313043;28;20080;-57
2023/07/02 05:11:53;;;;;;;41.78;20.48;;;;;;;;;;6302830;28;20498;-57
2023/07/02 05:14:54;;;;;;;43.87;20.37;;;;;;;;;;6315161;28;20052;-53
2023/07/02 05:17:54;;;;;;;37.13;19.73;;;;;;;;;;6305018;28;20071;-57
2023/07/02 05:20:55;;;;;;;37.43;19.27;;;;;;;;;;6303531;28;20052;-55
2023/07/02 05:23:56;;;;;;;40.93;20.60;;;;;;;;;;6312929;28;20060;-58
2023/07/02 05:26:56;;;;;;;36.27;19.60;;;;;;;;;;6298652;28;20044;-57
2023/07/02 05:29:57;;;;;;;39.00;19.70;;;;;;;;;;6295028;28;20053;-52
2023/07/02 05:32:57;;;;;;;40.13;19.90;;;;;;;;;;6303993;28;20055;-55
2023/07/02 05:35:58;;;;;;;42.43;20.87;;;;;;;;;;6292077;28;20075;-58
2023/07/02 05:38:58;;;;;;;37.43;20.23;;;;;;;;;;6303776;28;20539;-56
2023/07/02 05:41:59;;;;;;;38.33;21.17;;;;;;;;;;6298233;28;20044;-58
2023/07/02 05:45:00;;;;;;;35.33;18.83;;;;;;;;;;6308643;28;20132;-58
2023/07/02 05:48:01;;;;;;;34.80;19.13;;;;;;;;;;6303990;28;20094;-58
2023/07/02 05:51:02;;;;;;;36.53;18.73;;;;;;;;;;6301852;28;20044;-58
2023/07/02 05:54:03;;;;;;;26.85;16.00;;;;;;;;;;6303323;28;20056;-59
2023/07/02 05:57:03;;;;;;;27.77;15.43;;;;;;;;;;6290915;28;20050;-58
2023/07/02 06:00:05;;;;;;;29.57;14.67;;;;;;;;;;6313563;28;20052;-58
2023/07/02 06:03:05;;;;;;;29.17;15.23;;;;;;;;;;6294902;28;20385;-58
2023/07/02 06:06:06;;;;;;;30.03;14.70;;;;;;;;;;6303193;28;20506;-58
2023/07/02 06:09:07;;;;;;;29.53;15.33;;;;;;;;;;6304127;28;20040;-60
2023/07/02 06:12:08;;;;;;;28.70;15.03;;;;;;;;;;6314376;28;20052;-58
2023/07/02 06:15:09;;;;;;;31.27;15.27;;;;;;;;;;6289425;28;20109;-57
2023/07/02 06:18:10;;;;;;;29.88;14.55;;;;;;;;;;6292930;28;20545;-58
2023/07/02 06:21:10;;;;;;;27.67;14.63;;;;;;;;;;6304230;28;20052;-59
2023/07/02 06:24:11;;;;;;;29.47;15.37;;;;;;;;;;6304548;28;20414;-59
2023/07/02 06:27:11;;;;;;;29.03;15.37;;;;;;;;;;6302261;28;20056;-61
2023/07/02 06:30:12;;;;;;;26.17;15.07;;;;;;;;;;6315137;28;20457;-58
2023/07/02 06:33:13;;;;;;;28.07;15.43;;;;;;;;;;6313374;28;20048;-59
2023/07/02 06:36:14;;;;;;;29.63;15.33;;;;;;;;;;6301134;28;20071;-63
2023/07/02 06:39:15;;;;;;;29.45;15.25;;;;;;;;;;6311919;28;20139;-58
2023/07/02 06:42:15;;;;;;;23.67;13.87;;;;;;;;;;6310847;28;20060;-59
2023/07/02 06:45:16;;;;;;;30.27;15.00;;;;;;;;;;6312878;28;20040;-58
2023/07/02 06:48:20;;;;;;;29.17;14.67;;;;;;;;;;6313581;28;20044;-58
2023/07/02 06:51:21;;;;;;;27.50;14.43;;;;;;;;;;6310065;28;20400;-58
2023/07/02 06:54:22;;;;;;;26.92;14.05;;;;;;;;;;6300309;28;20508;-58
2023/07/02 06:57:23;;;;;;;33.43;13.77;;;;;;;;;;6292267;28;20041;-58
2023/07/02 07:00:24;;;;;;;24.95;12.82;;;;;;;;;;6302977;28;20079;-58
2023/07/02 07:03:25;;;;;;;26.35;13.15;;;;;;;;;;6298734;28;20129;-58
2023/07/02 07:06:26;;;;;;;23.00;12.03;;;;;;;;;;6299880;28;20040;-57
2023/07/02 07:09:27;;;;;;;24.30;12.37;;;;;;;;;;6300804;28;20521;-57
2023/07/02 07:12:27;;;;;;;21.70;11.77;;;;;;;;;;6301096;28;20501;-56
2023/07/02 07:15:32;;;;;;;23.10;11.77;;;;;;;;;;6311981;28;20044;-58
2023/07/02 07:18:33;;;;;;;24.83;11.30;;;;;;;;;;6289629;28;20045;-57
2023/07/02 07:21:34;;;;;;;18.93;10.33;;;;;;;;;;6300438;28;20609;-57
2023/07/02 07:24:35;;;;;;;18.40;11.13;;;;;;;;;;6300448;28;20048;-58
2023/07/02 07:27:37;;;;;;;19.83;10.50;;;;;;;;;;6300451;28;20407;-58
2023/07/02 07:30:38;;;;;;;;;;;;;;;;;;6304994;28;20043;-58
2023/07/02 07:33:38;;;;;;;18.58;9.93;;;;;;;;;;6307175;28;19924;-59
2023/07/02 07:36:39;;;;;;;19.17;10.10;;;;;;;;;;6313155;28;20055;-58
2023/07/02 07:39:39;;;;;;;18.10;10.13;;;;;;;;;;6298233;28;20467;-59
2023/07/02 07:42:44;;;;;;;20.47;11.03;;;;;;;;;;6291000;28;20072;-58
2023/07/02 07:45:44;;;;;;;22.10;11.05;;;;;;;;;;6295868;28;20080;-58
2023/07/02 07:48:45;;;;;;;19.73;10.60;;;;;;;;;;6297864;28;20054;-58
2023/07/02 07:51:45;;;;;;;23.50;10.97;;;;;;;;;;6300016;28;20754;-61
2023/07/02 07:54:46;;;;;;;18.80;9.83;;;;;;;;;;6304606;28;20052;-59
2023/07/02 07:57:47;;;;;;;19.60;10.37;;;;;;;;;;6298184;28;20562;-59
2023/07/02 08:00:48;;;;;;;22.73;10.40;;;;;;;;;;6300617;28;20543;-58
2023/07/02 08:03:48;;;;;;;20.07;9.77;;;;;;;;;;6299363;28;20044;-58
2023/07/02 08:06:49;;;;;;;19.83;10.20;;;;;;;;;;6288984;28;20135;-59
2023/07/02 08:09:49;;;;;;;19.97;10.43;;;;;;;;;;6291751;28;20090;-59
2023/07/02 08:12:52;;;;;;;23.97;10.73;;;;;;;;;;6309107;28;20044;-59
2023/07/02 08:15:52;;;;;;;23.55;10.98;;;;;;;;;;6298730;28;20571;-59
2023/07/02 08:18:53;;;;;;;18.00;10.13;;;;;;;;;;6297210;28;20072;-59
2023/07/02 08:21:53;;;;;;;18.07;10.10;;;;;;;;;;6303786;28;20052;-59
2023/07/02 08:24:54;;;;;;;19.20;10.10;;;;;;;;;;6312660;28;20081;-59
2023/07/02 08:27:55;;;;;;;19.27;9.87;;;;;;;;;;6299468;28;20075;-58
2023/07/02 08:30:55;;;;;;;20.73;10.37;;;;;;;;;;6299731;28;20044;-59
2023/07/02 08:33:56;;;;;;;19.70;11.43;;;;;;;;;;6302170;28;20048;-58
2023/07/02 08:36:56;;;;;;;21.43;11.70;;;;;;;;;;6303841;28;20185;-58
2023/07/02 08:39:57;;;;;;;21.77;11.53;;;;;;;;;;6314696;28;20044;-56
2023/07/02 08:42:58;;;;;;;22.20;12.63;;;;;;;;;;6316959;28;20624;-59
2023/07/02 08:45:59;;;;;;;19.90;12.55;;;;;;;;;;6313099;28;20467;-58
2023/07/02 08:49:00;;;;;;;24.27;13.77;;;;;;;;;;6302849;28;20039;-58
2023/07/02 08:52:00;;;;;;;28.17;13.70;;;;;;;;;;6302740;28;20040;-58
2023/07/02 08:55:01;;;;;;;26.53;15.50;;;;;;;;;;6310268;28;20519;-59
2023/07/02 08:58:02;;;;;;;24.07;14.30;;;;;;;;;;6294118;28;20062;-58
2023/07/02 09:01:13;;;;;;;23.67;15.70;;;;;;;;;;6302873;28;20071;-58
2023/07/02 09:04:20;;;;;;;25.70;16.00;;;;;;;;;;6294506;28;20044;-59
2023/07/02 09:07:21;;;;;;;26.73;15.25;;;;;;;;;;6314782;28;20166;-58
2023/07/02 09:10:27;;;;;;;28.23;15.60;;;;;;;;;;6292025;28;20049;-58
2023/07/02 09:13:28;;;;;;;24.15;16.38;;;;;;;;;;6303999;28;20138;-58
2023/07/02 09:16:34;;;;;;;27.97;16.43;;;;;;;;;;6302190;28;20521;-57
2023/07/02 09:19:36;;;;;;;24.40;16.33;;;;;;;;;;6308558;28;20044;-58
2023/07/02 09:22:38;;;;;;;28.20;17.65;;;;;;;;;;6311749;28;20056;-59
2023/07/02 09:25:40;;;;;;;30.50;18.27;;;;;;;;;;6316766;28;20119;-59
2023/07/02 09:28:41;;;;;;;26.67;17.42;;;;;;;;;;6315732;28;20135;-60
2023/07/02 09:31:46;;;;;;;25.50;16.17;;;;;;;;;;6303132;28;20476;-61
2023/07/02 09:34:47;;;;;;;29.52;16.67;;;;;;;;;;6303326;28;20044;-62
2023/07/02 09:37:49;;;;;;;25.27;16.50;;;;;;;;;;6301831;28;20044;-60
2023/07/02 09:40:51;;;;;;;22.73;14.95;;;;;;;;;;6303369;28;20491;-56
2023/07/02 09:43:52;;;;;;;19.30;12.90;;;;;;;;;;6312831;28;20491;-59
2023/07/02 09:47:00;;;;;;;25.27;13.80;;;;;;;;;;6311030;28;20040;-60
2023/07/02 09:50:05;;;;;;;20.38;12.32;;;;;;;;;;6309539;28;20070;-58
2023/07/02 09:53:06;;;;;;;24.25;11.45;;;;;;;;;;6308613;28;20085;-59
2023/07/02 09:56:08;;;;;;;19.93;11.17;;;;;;;;;;6300566;28;20048;-60
2023/07/02 09:59:08;;;;;;;21.88;11.35;;;;;;;;;;6290300;28;20052;-59
2023/07/02 10:02:10;;;;;;;19.13;12.30;;;;;;;;;;6304062;28;20151;-59
2023/07/02 10:05:23;;;;;;;18.75;11.18;;;;;;;;;;6314960;28;20150;-57
2023/07/02 10:08:30;;;;;;;18.77;10.68;;;;;;;;;;6304715;28;20132;-58
2023/07/02 10:11:35;;;;;;;17.33;10.75;;;;;;;;;;6301311;28;20032;-58
2023/07/02 10:14:43;;;;;;;18.45;10.98;;;;;;;;;;6298652;28;20074;-58
2023/07/02 10:17:55;;;;;;;22.23;11.07;;;;;;;;;;6301754;28;20047;-59
2023/07/02 10:20:56;;;;;;;19.27;11.48;;;;;;;;;;6300852;28;20040;-59
2023/07/02 10:23:56;;;;;;;19.10;10.80;;;;;;;;;;6301260;28;20510;-59
2023/07/02 10:26:59;;;;;;;19.07;11.27;;;;;;;;;;6315288;28;20077;-59
2023/07/02 10:30:00;;;;;;;17.38;10.93;;;;;;;;;;6313912;28;20498;-58
2023/07/02 10:33:15;;;;;;;16.33;11.17;;;;;;;;;;6313070;28;20040;-58
2023/07/02 10:36:23;;;;;;;18.23;11.07;;;;;;;;;;6314017;28;20048;-57
2023/07/02 10:39:24;;;;;;;18.83;10.55;;;;;;;;;;6313615;28;20414;-58
2023/07/02 10:42:24;;;;;;;20.83;10.67;;;;;;;;;;6314011;28;20096;-58
2023/07/02 10:45:33;;;;;;;14.97;9.23;;;;;;;;;;6314640;28;20097;-55
2023/07/02 10:48:33;;;;;;;16.70;9.57;;;;;;;;;;6315195;28;20101;-60
2023/07/02 10:51:34;;;;;;;15.23;9.68;;;;;;;;;;6314336;28;20043;-58
2023/07/02 10:54:43;;;;;;;14.43;9.77;;;;;;;;;;6313920;28;20182;-58
2023/07/02 10:57:44;;;;;;;14.77;9.73;;;;;;;;;;6314915;28;20070;-56
2023/07/02 11:00:45;;;;;;;16.83;9.60;;;;;;;;;;6311047;28;20052;-59
2023/07/02 11:03:55;;;;;;;16.75;9.85;;;;;;;;;;6313733;28;20513;-59
2023/07/02 11:06:56;;;;;;;17.13;10.52;;;;;;;;;;6314145;28;20048;-57
2023/07/02 11:09:56;;;;;;;15.50;10.10;;;;;;;;;;6312887;28;20047;-59
2023/07/02 11:12:57;;;;;;;17.37;10.60;;;;;;;;;;6313736;28;20047;-59
2023/07/02 11:15:57;;;;;;;16.43;10.93;;;;;;;;;;6314050;28;20139;-60
2023/07/02 11:19:10;;;;;;;18.63;10.90;;;;;;;;;;6314707;28;20051;-59
2023/07/02 11:22:10;;;;;;;18.50;11.52;;;;;;;;;;6306939;28;20040;-59
2023/07/02 11:25:16;;;;;;;17.80;10.80;;;;;;;;;;6296683;28;20445;-59
2023/07/02 11:28:17;;;;;;;16.60;9.93;;;;;;;;;;6294263;28;20563;-59
2023/07/02 11:31:25;;;;;;;16.50;10.73;;;;;;;;;;6311673;28;20057;-59
2023/07/02 11:34:55;;;;;;;17.85;10.55;;;;;;;;;;6653309;22;20025;-61
2023/07/02 11:37:55;;;;;;;19.02;10.88;;;;;;;;;;6211979;28;20196;-60
2023/07/02 11:40:56;;;;;;;25.97;10.20;;;;;;;;;;6216408;28;20078;-60
2023/07/02 11:43:56;;;;;;;17.17;10.73;;;;;;;;;;6217870;28;20480;-60
2023/07/02 11:46:58;;;;;;;17.40;10.33;;;;;;;;;;6217417;28;20129;-60
2023/07/02 11:49:59;;;;;;;19.52;10.70;;;;;;;;;;6218298;28;20050;-60
2023/07/02 11:52:59;;;;;;;13.05;9.63;;;;;;;;;;6218315;28;20050;-60
2023/07/02 11:56:00;;;;;;;16.00;10.10;;;;;;;;;;6217010;28;20049;-60
2023/07/02 11:59:01;;;;;;;14.47;10.17;;;;;;;;;;6217185;28;20053;-60
2023/07/02 12:02:01;;;;;;;18.20;9.80;;;;;;;;;;6217840;28;20061;-61
2023/07/02 12:05:03;;;;;;;15.45;9.38;;;;;;;;;;6216899;28;20466;-60
2023/07/02 12:08:03;;;;;;;14.43;9.90;;;;;;;;;;6210486;28;20056;-61
2023/07/02 12:11:04;;;;;;;15.15;10.02;;;;;;;;;;6221675;28;20443;-61
2023/07/02 12:14:05;;;;;;;14.97;9.30;;;;;;;;;;6222128;28;20417;-61
2023/07/02 12:17:05;;;;;;;13.13;8.70;;;;;;;;;;6218234;28;20046;-60
2023/07/02 12:20:06;;;;;;;13.93;8.87;;;;;;;;;;6216288;28;20412;-61
2023/07/02 12:23:07;;;;;;;13.35;8.02;;;;;;;;;;6222025;28;20046;-61
2023/07/02 12:26:07;;;;;;;15.60;7.83;;;;;;;;;;6213258;28;20049;-59
2023/07/02 12:29:08;;;;;;;9.60;7.10;;;;;;;;;;6222323;28;20141;-60
2023/07/02 12:32:09;;;;;;;10.97;6.63;;;;;;;;;;6205175;28;20596;-61
2023/07/02 12:35:10;;;;;;;7.90;5.20;;;;;;;;;;6194819;28;20109;-63
2023/07/02 12:38:12;;;;;;;8.60;3.72;;;;;;;;;;6203803;28;20058;-63
2023/07/02 12:41:15;;;;;;;8.98;2.95;;;;;;;;;;6196082;28;20528;-61
2023/07/02 12:44:15;;;;;;;17.30;3.27;;;;;;;;;;6198591;28;20089;-61
2023/07/02 12:47:16;;;;;;;7.57;2.90;;;;;;;;;;6194474;28;20046;-59
2023/07/02 12:50:16;;;;;;;5.80;2.90;;;;;;;;;;6195281;28;20053;-60
2023/07/02 12:53:17;;;;;;;7.03;3.20;;;;;;;;;;6195568;28;20101;-63
2023/07/02 12:56:17;;;;;;;6.30;3.47;;;;;;;;;;6194854;28;20089;-59
2023/07/02 12:59:18;;;;;;;7.07;3.63;;;;;;;;;;6194829;28;20047;-59
2023/07/02 13:02:19;;;;;;;8.03;3.40;;;;;;;;;;6197916;28;20050;-60
2023/07/02 13:05:19;;;;;;;9.33;3.87;;;;;;;;;;6194670;28;20058;-59
2023/07/02 13:08:20;;;;;;;9.57;3.20;;;;;;;;;;6200560;28;20050;-62
2023/07/02 13:11:22;;;;;;;6.43;3.80;;;;;;;;;;6198526;28;21779;-62
2023/07/02 13:14:22;;;;;;;6.43;3.58;;;;;;;;;;6197044;28;20053;-60
2023/07/02 13:17:23;;;;;;;7.43;4.03;;;;;;;;;;6199597;28;20042;-61
2023/07/02 13:20:24;;;;;;;9.03;3.80;;;;;;;;;;6194694;28;20361;-62
2023/07/02 13:23:25;;;;;;;9.00;4.23;;;;;;;;;;6200793;28;20141;-60
2023/07/02 13:26:26;;;;;;;8.30;4.43;;;;;;;;;;6194620;28;20047;-61
2023/07/02 13:29:27;;;;;;;11.45;4.82;;;;;;;;;;6194325;28;20112;-61
2023/07/02 13:32:27;;;;;;;10.87;4.87;;;;;;;;;;6197655;28;20512;-62
2023/07/02 13:35:28;;;;;;;12.63;5.38;;;;;;;;;;6201490;28;20157;-60
2023/07/02 13:38:29;;;;;;;8.43;5.47;;;;;;;;;;6196542;28;20493;-61
2023/07/02 13:41:30;;;;;;;10.33;5.33;;;;;;;;;;6194324;28;20145;-62
2023/07/02 13:44:31;;;;;;;9.50;5.40;;;;;;;;;;6195944;28;20053;-60
2023/07/02 13:47:32;;;;;;;12.75;6.75;;;;;;;;;;6195164;28;20046;-60
2023/07/02 13:50:32;;;;;;;9.53;5.33;;;;;;;;;;6196675;28;20038;-62
2023/07/02 13:53:34;;;;;;;13.63;7.77;;;;;;;;;;6198690;28;20100;-62
2023/07/02 13:56:34;;;;;;;8.77;5.73;;;;;;;;;;6197978;28;20053;-61
2023/07/02 13:59:35;;;;;;;12.03;6.13;;;;;;;;;;6195420;28;20119;-62
2023/07/02 14:02:35;;;;;;;11.70;7.60;;;;;;;;;;6188757;28;20046;-63
2023/07/02 14:05:36;;;;;;;11.00;6.30;;;;;;;;;;6188880;28;20054;-60
2023/07/02 14:08:36;;;;;;;13.90;7.57;;;;;;;;;;6196758;28;20046;-60
2023/07/02 14:11:39;;;;;;;13.10;6.97;;;;;;;;;;6184090;28;20072;-61
2023/07/02 14:14:40;;;;;;;8.90;5.03;;;;;;;;;;6188380;28;20043;-64
2023/07/02 14:17:41;;;;;;;10.90;6.67;;;;;;;;;;6189521;28;20054;-61
2023/07/02 14:20:41;;;;;;;11.53;6.33;;;;;;;;;;6191157;28;20061;-61
2023/07/02 14:23:43;;;;;;;9.00;5.47;;;;;;;;;;6192604;28;20067;-64
2023/07/02 14:26:44;;;;;;;9.43;5.47;;;;;;;;;;6190549;28;20159;-61
2023/07/02 14:29:47;;;;;;;;;;;;;;;;;;6188095;28;20050;-62
2023/07/02 14:32:47;;;;;;;12.57;7.00;;;;;;;;;;6189544;28;20264;-61
2023/07/02 14:35:48;;;;;;;16.20;11.43;;;;;;;;;;6188423;28;20569;-64
2023/07/02 14:38:49;;;;;;;11.80;7.90;;;;;;;;;;6188986;28;20104;-63
2023/07/02 14:41:50;;;;;;;12.50;6.37;;;;;;;;;;6189059;28;20054;-61
2023/07/02 14:44:50;;;;;;;8.23;5.35;;;;;;;;;;6194395;28;20489;-60
2023/07/02 14:47:51;;;;;;;9.77;5.60;;;;;;;;;;6189517;28;20061;-60
2023/07/02 14:50:54;;;;;;;9.60;5.77;;;;;;;;;;6189674;28;20793;-60
2023/07/02 14:53:56;;;;;;;10.80;5.18;;;;;;;;;;6194722;28;20049;-60
2023/07/02 14:56:56;;;;;;;9.45;5.32;;;;;;;;;;6190265;28;20107;-60
2023/07/02 14:59:57;;;;;;;8.87;5.20;;;;;;;;;;6189845;28;20195;-60
2023/07/02 15:02:58;;;;;;;7.87;5.10;;;;;;;;;;6190873;28;20477;-61
2023/07/02 15:06:09;;;;;;;9.73;5.50;;;;;;;;;;6189622;28;20085;-60
2023/07/02 15:09:10;;;;;;;8.63;5.25;;;;;;;;;;6190462;28;20099;-59
2023/07/02 15:12:11;;;;;;;8.93;5.50;;;;;;;;;;6187033;28;20169;-60
2023/07/02 15:15:14;;;;;;;12.83;6.23;;;;;;;;;;6191350;28;20477;-61
2023/07/02 15:18:15;;;;;;;9.02;5.80;;;;;;;;;;6186940;28;20076;-61
2023/07/02 15:21:16;;;;;;;9.73;5.70;;;;;;;;;;6191157;28;20476;-61
2023/07/02 15:24:17;;;;;;;10.40;5.32;;;;;;;;;;6189208;28;20045;-61
2023/07/02 15:27:17;;;;;;;8.50;5.57;;;;;;;;;;6189185;28;20053;-60
2023/07/02 15:30:18;;;;;;;7.50;5.13;;;;;;;;;;6191459;28;20060;-60
2023/07/02 15:33:19;;;;;;;9.33;5.23;;;;;;;;;;6188247;28;20053;-61
2023/07/02 15:36:21;;;;;;;10.48;5.30;;;;;;;;;;6188635;28;20062;-61
2023/07/02 15:39:23;;;;;;;;;;;;;;;;;;6191198;28;20042;-60
2023/07/02 15:42:29;;;;;;;9.32;5.28;;;;;;;;;;6189528;28;19932;-60
2023/07/02 15:45:30;;;;;;;9.05;5.30;;;;;;;;;;6195176;28;20131;-63
2023/07/02 15:48:31;;;;;;;8.98;5.40;;;;;;;;;;6194159;28;20050;-60
2023/07/02 15:51:36;;;;;;;14.20;6.53;;;;;;;;;;6194455;28;20042;-60
2023/07/02 15:54:37;;;;;;;10.38;5.82;;;;;;;;;;6196389;28;20050;-60
2023/07/02 15:57:37;;;;;;;7.50;5.30;;;;;;;;;;6193854;28;20593;-60
2023/07/02 16:00:38;;;;;;;10.37;5.50;;;;;;;;;;6195618;28;20060;-61
2023/07/02 16:03:39;;;;;;;8.97;5.70;;;;;;;;;;6196082;28;20054;-60
2023/07/02 16:06:39;;;;;;;10.88;5.78;;;;;;;;;;6194640;28;20050;-60
2023/07/02 16:09:40;;;;;;;8.40;6.10;;;;;;;;;;6193943;28;20613;-60
2023/07/02 16:12:43;;;;;;;8.85;5.70;;;;;;;;;;6190848;28;20050;-59
2023/07/02 16:15:43;;;;;;;11.68;6.13;;;;;;;;;;6195970;28;20046;-60
2023/07/02 16:18:45;;;;;;;10.50;6.43;;;;;;;;;;6192904;28;20177;-60
2023/07/02 16:21:47;;;;;;;10.50;6.07;;;;;;;;;;6196580;28;20128;-61
2023/07/02 16:24:48;;;;;;;10.32;5.65;;;;;;;;;;6195521;28;20371;-60
2023/07/02 16:27:48;;;;;;;9.67;6.20;;;;;;;;;;6176275;28;20053;-60
2023/07/02 16:30:50;;;;;;;10.80;6.10;;;;;;;;;;6192545;28;20080;-60
2023/07/02 16:33:50;;;;;;;11.15;6.28;;;;;;;;;;6192629;28;21021;-60
2023/07/02 16:36:51;;;;;;;14.45;6.38;;;;;;;;;;6197117;28;20505;-61
2023/07/02 16:39:52;;;;;;;11.70;6.50;;;;;;;;;;6191731;28;20076;-60
2023/07/02 16:42:53;;;;;;;10.07;6.33;;;;;;;;;;6202145;28;20386;-60
2023/07/02 16:45:56;;;;;;;9.07;6.40;;;;;;;;;;6192836;28;20050;-61
2023/07/02 16:48:58;;;;;;;8.73;5.97;;;;;;;;;;6190993;28;20054;-60
2023/07/02 16:51:58;;;;;;;11.70;6.88;;;;;;;;;;6196283;28;20048;-61
2023/07/02 16:54:59;;;;;;;13.05;7.22;;;;;;;;;;6195712;28;20405;-60
2023/07/02 16:57:59;;;;;;;11.80;7.43;;;;;;;;;;6196576;28;20093;-61
2023/07/02 17:01:06;;;;;;;11.23;6.67;;;;;;;;;;6194943;28;20137;-60
2023/07/02 17:04:07;;;;;;;12.77;6.60;;;;;;;;;;6195162;28;20315;-60
2023/07/02 17:07:08;;;;;;;19.60;10.90;;;;;;;;;;6195864;28;20046;-61
2023/07/02 17:10:09;;;;;;;83.32;44.67;;;;;;;;;;6192603;28;20792;-61
2023/07/02 17:13:09;;;;;;;10.30;6.90;;;;;;;;;;6193791;28;20221;-61
2023/07/02 17:16:10;;;;;;;17.37;11.30;;;;;;;;;;6193899;28;20054;-60
2023/07/02 17:19:13;;;;;;;10.87;7.50;;;;;;;;;;6190533;28;21205;-60
2023/07/02 17:22:22;;;;;;;11.52;7.30;;;;;;;;;;6192830;28;20065;-60
2023/07/02 17:25:23;;;;;;;27.48;16.88;;;;;;;;;;6194573;28;20516;-60
2023/07/02 17:28:23;;;;;;;20.50;11.30;;;;;;;;;;6191600;28;20070;-62
2023/07/02 17:31:24;;;;;;;32.80;19.50;;;;;;;;;;6192368;28;20098;-60
2023/07/02 17:34:26;;;;;;;15.50;9.93;;;;;;;;;;6194044;28;20276;-60
2023/07/02 17:37:27;;;;;;;12.40;7.68;;;;;;;;;;6200616;28;20053;-61
2023/07/02 17:40:28;;;;;;;9.07;6.47;;;;;;;;;;6194980;28;20054;-60
2023/07/02 17:43:28;;;;;;;11.55;7.10;;;;;;;;;;6196759;28;20112;-64